Time;durP1;ratioP1;P1;durP2;ratioP2;P2;SDS_P1;SDS_P2;PMS_P1;PMS_P2;Temp;Humidity;BMP_temperature;BMP_pressure;BME280_temperature;BME280_humidity;BME280_pressure;Samples;Min_cycle;Max_cycle;Signal;HPM_P1;HPM_P2
2023/12/17 00:01:53;;;;;;;5.65;3.20;;;1.40;99.90;;;0.09;100.00;99444.69;4989678;28;20037;-36
2023/12/17 00:04:18;;;;;;;7.55;3.50;;;1.30;99.90;;;0.26;100.00;99454.81;4999565;28;20046;-36
2023/12/17 00:06:44;;;;;;;5.13;3.15;;;1.30;99.90;;;0.41;100.00;99486.50;4997171;28;20478;-36
2023/12/17 00:09:10;;;;;;;6.22;3.60;;;1.30;99.90;;;0.36;100.00;99480.28;4993322;28;20072;-36
2023/12/17 00:11:40;;;;;;;6.88;4.15;;;1.30;99.90;;;0.36;100.00;99488.94;4997092;28;20037;-36
2023/12/17 00:14:06;;;;;;;7.65;4.63;;;1.30;99.90;;;0.34;100.00;99480.22;4995342;28;20398;-36
2023/12/17 00:16:32;;;;;;;7.93;5.18;;;1.30;99.90;;;0.33;100.00;99487.94;4995594;28;20103;-36
2023/12/17 00:18:58;;;;;;;10.95;5.78;;;1.20;99.90;;;0.30;100.00;99478.31;4994600;28;20041;-36
2023/12/17 00:21:23;;;;;;;14.82;6.03;;;1.20;99.90;;;0.31;100.00;99500.00;5002212;28;20041;-35
2023/12/17 00:23:49;;;;;;;11.40;6.10;;;1.20;99.90;;;0.27;100.00;99499.00;4999376;28;20088;-36
2023/12/17 00:26:15;;;;;;;13.00;6.88;;;1.20;99.90;;;0.28;100.00;99505.06;4995808;28;20223;-36
2023/12/17 00:28:41;;;;;;;12.55;6.95;;;1.20;99.90;;;0.26;100.00;99507.59;4994998;28;20041;-36
2023/12/17 00:31:06;;;;;;;10.98;6.07;;;1.20;99.90;;;0.28;100.00;99499.88;4997190;28;20449;-36
2023/12/17 00:33:32;;;;;;;11.32;5.18;;;1.20;99.90;;;0.28;100.00;99489.47;5002903;28;20049;-36
2023/12/17 00:35:58;;;;;;;13.10;5.65;;;1.20;99.90;;;0.28;100.00;99494.69;4997657;28;20666;-35
2023/12/17 00:38:23;;;;;;;10.10;5.07;;;1.20;99.90;;;0.28;100.00;99505.06;5002905;28;20030;-36
2023/12/17 00:40:49;;;;;;;11.15;4.97;;;1.20;99.90;;;0.26;100.00;99496.34;4993086;28;20037;-36
2023/12/17 00:43:15;;;;;;;12.45;5.57;;;1.20;99.90;;;0.25;100.00;99494.56;5003649;28;20406;-36
2023/12/17 00:45:40;;;;;;;13.68;6.82;;;1.20;99.90;;;0.24;100.00;99510.97;5000987;28;20038;-37
2023/12/17 00:48:06;;;;;;;12.93;6.63;;;1.10;99.90;;;0.23;100.00;99504.88;5005154;28;20387;-35
2023/12/17 00:50:32;;;;;;;11.18;5.90;;;1.10;99.90;;;0.21;100.00;99510.84;5001662;28;20041;-36
2023/12/17 00:52:57;;;;;;;14.13;6.38;;;1.10;99.90;;;0.19;100.00;99506.47;5003266;28;20229;-34
2023/12/17 00:55:23;;;;;;;10.82;6.15;;;1.10;99.90;;;0.17;100.00;99504.66;5005384;28;20070;-35
2023/12/17 00:57:49;;;;;;;12.27;6.25;;;1.10;99.90;;;0.17;100.00;99500.34;4999235;28;20030;-35
2023/12/17 01:00:15;;;;;;;13.18;6.75;;;1.10;99.90;;;0.16;100.00;99501.19;5001403;28;20040;-35
2023/12/17 01:02:42;;;;;;;13.82;6.43;;;1.10;99.90;;;0.16;100.00;99503.78;5002852;28;20032;-35
2023/12/17 01:05:08;;;;;;;14.70;6.75;;;1.10;99.90;;;0.16;100.00;99493.41;5001793;28;20025;-35
2023/12/17 01:07:34;;;;;;;13.00;6.07;;;1.20;99.90;;;0.21;100.00;99490.09;5003308;28;20065;-35
2023/12/17 01:09:59;;;;;;;10.70;6.55;;;1.20;99.90;;;0.17;100.00;99479.56;4997706;28;24019;-35
2023/12/17 01:12:25;;;;;;;12.35;6.70;;;1.20;99.90;;;0.12;100.00;99494.09;5002880;28;20395;-35
2023/12/17 01:14:51;;;;;;;12.95;6.53;;;1.10;99.90;;;0.16;100.00;99508.97;4997419;28;20026;-36
2023/12/17 01:17:16;;;;;;;12.82;7.22;;;1.10;99.90;;;0.15;100.00;99512.38;4998835;28;20030;-35
2023/12/17 01:19:42;;;;;;;13.60;7.38;;;1.10;99.90;;;0.10;100.00;99498.34;5000186;28;20036;-35
2023/12/17 01:22:08;;;;;;;13.50;7.75;;;1.10;99.90;;;0.12;100.00;99507.06;4999055;28;20383;-35
2023/12/17 01:24:33;;;;;;;16.52;8.63;;;1.00;99.90;;;0.09;100.00;99501.78;5002242;28;20044;-35
2023/12/17 01:27:00;;;;;;;13.98;7.80;;;1.00;99.90;;;0.03;100.00;99509.31;4998103;28;20029;-35
2023/12/17 01:29:25;;;;;;;14.18;7.65;;;1.00;99.90;;;-0.05;100.00;99496.03;5001892;28;20077;-35
2023/12/17 01:31:51;;;;;;;14.25;7.22;;;1.00;99.90;;;0.04;100.00;99521.47;4998670;28;20038;-35
2023/12/17 01:34:19;;;;;;;15.95;7.57;;;1.00;99.90;;;0.03;100.00;99519.69;4998788;28;20024;-35
2023/12/17 01:36:45;;;;;;;15.68;7.75;;;1.00;99.90;;;0.03;100.00;99517.09;4999476;28;20410;-35
2023/12/17 01:39:10;;;;;;;15.80;7.70;;;0.90;99.90;;;0.02;100.00;99517.94;5000279;28;20030;-35
2023/12/17 01:41:36;;;;;;;15.23;7.20;;;0.90;99.90;;;0.00;100.00;99519.59;4999418;28;20282;-36
2023/12/17 01:44:02;;;;;;;12.82;7.45;;;1.00;99.90;;;-0.02;100.00;99519.53;5001003;28;20102;-36
2023/12/17 01:46:28;;;;;;;16.85;9.00;;;1.00;99.90;;;-0.12;100.00;99498.34;4998568;28;20034;-36
2023/12/17 01:48:53;;;;;;;13.32;8.65;;;0.90;99.90;;;-0.02;100.00;99518.63;5001759;28;20072;-36
2023/12/17 01:51:19;;;;;;;14.27;7.80;;;0.90;99.90;;;-0.03;100.00;99506.47;4998422;28;20064;-36
2023/12/17 01:53:45;;;;;;;16.75;9.07;;;0.90;99.90;;;-0.04;100.00;99513.34;4990804;28;20030;-36
2023/12/17 01:56:14;;;;;;;17.08;8.68;;;0.90;99.90;;;-0.09;100.00;99511.41;4999747;28;20030;-36
2023/12/17 01:58:40;;;;;;;13.13;7.93;;;0.90;99.90;;;-0.10;100.00;99509.66;5002151;28;20125;-36
2023/12/17 02:01:07;;;;;;;15.13;7.63;;;0.90;99.90;;;-0.13;100.00;99512.13;4988650;28;20088;-36
2023/12/17 02:03:33;;;;;;;14.00;7.75;;;0.90;99.90;;;-0.14;100.00;99523.31;5016999;28;20029;-35
2023/12/17 02:06:00;;;;;;;11.57;7.57;;;0.80;99.90;;;-0.20;100.00;99517.09;4998066;28;20076;-36
2023/12/17 02:08:26;;;;;;;14.43;8.27;;;0.80;99.90;;;-0.20;100.00;99518.78;5001186;28;20137;-36
2023/12/17 02:10:53;;;;;;;16.83;8.20;;;0.80;99.90;;;-0.24;100.00;99520.34;4995680;28;20698;-36
2023/12/17 02:13:19;;;;;;;14.63;7.65;;;0.80;99.90;;;-0.26;100.00;99511.63;5000389;28;20257;-36
2023/12/17 02:15:45;;;;;;;12.35;7.63;;;0.70;99.90;;;-0.26;100.00;99506.44;4996758;28;20175;-36
2023/12/17 02:18:10;;;;;;;16.67;8.00;;;0.70;99.90;;;-0.25;100.00;99513.41;4995319;28;20081;-36
2023/12/17 02:20:36;;;;;;;14.23;8.32;;;0.70;99.90;;;-0.27;100.00;99512.47;4993360;28;20041;-36
2023/12/17 02:23:03;;;;;;;14.60;7.68;;;0.70;99.90;;;-0.28;100.00;99515.88;4999333;28;20332;-36
2023/12/17 02:25:29;;;;;;;14.38;8.02;;;0.70;99.90;;;-0.37;100.00;99504.28;4998753;28;20030;-36
2023/12/17 02:27:58;;;;;;;15.32;8.60;;;0.60;99.90;;;-0.30;100.00;99516.66;4997356;28;20083;-36
2023/12/17 02:30:24;;;;;;;16.88;8.65;;;0.60;99.90;;;-0.32;100.00;99523.47;4998344;28;20135;-36
2023/12/17 02:32:51;;;;;;;15.93;8.43;;;0.70;99.90;;;-0.34;100.00;99518.25;4997648;28;20061;-36
2023/12/17 02:35:17;;;;;;;18.80;8.93;;;0.60;99.90;;;-0.36;100.00;99514.69;4998466;28;20112;-36
2023/12/17 02:37:42;;;;;;;15.05;9.13;;;0.60;99.90;;;-0.38;100.00;99503.34;4995709;28;20105;-36
2023/12/17 02:40:09;;;;;;;15.38;8.27;;;0.60;99.90;;;-0.39;100.00;99517.16;4997551;28;20042;-36
2023/12/17 02:42:34;;;;;;;14.82;8.07;;;0.60;99.90;;;-0.44;100.00;99516.09;5000998;28;20029;-36
2023/12/17 02:45:00;;;;;;;17.67;8.55;;;0.60;99.90;;;-0.41;100.00;99531.78;4996452;28;20044;-36
2023/12/17 02:47:26;;;;;;;13.90;8.13;;;0.60;99.90;;;-0.42;100.00;99528.28;4998984;28;20069;-36
2023/12/17 02:49:51;;;;;;;17.15;8.68;;;0.60;99.90;;;-0.43;100.00;99521.34;4999496;28;20839;-35
2023/12/17 02:52:18;;;;;;;15.75;8.32;;;0.50;99.90;;;-0.44;100.00;99516.97;5001617;28;20030;-35
2023/12/17 02:54:44;;;;;;;12.93;8.55;;;0.50;99.90;;;-0.47;100.00;99490.03;5000715;28;20061;-35
2023/12/17 02:57:10;;;;;;;12.80;7.50;;;0.50;99.90;;;-0.47;100.00;99501.28;4996637;28;20125;-36
2023/12/17 02:59:36;;;;;;;12.15;7.88;;;0.50;99.90;;;-0.45;100.00;99494.47;5000749;28;20031;-35
2023/12/17 03:02:01;;;;;;;16.95;8.05;;;0.50;99.90;;;-0.50;100.00;99484.72;4997603;28;20037;-35
2023/12/17 03:04:27;;;;;;;14.07;7.20;;;0.50;99.90;;;-0.45;100.00;99490.97;4998996;28;20125;-35
2023/12/17 03:06:53;;;;;;;14.32;7.43;;;0.50;99.90;;;-0.45;100.00;99497.06;4994572;28;20059;-35
2023/12/17 03:09:19;;;;;;;10.75;6.68;;;0.50;99.90;;;-0.45;100.00;99494.47;4990672;28;20471;-35
2023/12/17 03:11:45;;;;;;;11.98;6.60;;;0.50;99.90;;;-0.43;100.00;99497.09;5000990;28;20065;-35
2023/12/17 03:14:11;;;;;;;13.43;6.72;;;0.50;99.90;;;-0.46;100.00;99486.63;4998178;28;20026;-35
2023/12/17 03:16:37;;;;;;;12.43;6.57;;;0.50;99.90;;;-0.40;100.00;99479.97;4998872;28;20041;-35
2023/12/17 03:19:02;;;;;;;12.07;6.75;;;0.50;99.90;;;-0.48;100.00;99468.41;4999779;28;20099;-35
2023/12/17 03:21:28;;;;;;;13.02;6.78;;;0.50;99.90;;;-0.40;100.00;99479.09;4995294;28;20430;-35
2023/12/17 03:23:54;;;;;;;12.57;6.68;;;0.60;99.90;;;-0.41;100.00;99483.41;4991391;28;20034;-35
2023/12/17 03:26:20;;;;;;;12.25;6.75;;;0.50;99.90;;;-0.48;100.00;99472.72;5001197;28;20087;-35
2023/12/17 03:28:46;;;;;;;12.10;6.45;;;0.50;99.90;;;-0.40;100.00;99486.84;5002212;28;20053;-35
2023/12/17 03:31:16;;;;;;;13.65;6.82;;;0.50;99.90;;;-0.42;100.00;99468.66;4999230;28;20038;-35
2023/12/17 03:33:43;;;;;;;13.95;6.78;;;0.50;99.90;;;-0.44;100.00;99462.53;4994534;28;20030;-35
2023/12/17 03:36:14;;;;;;;12.05;7.20;;;0.50;99.90;;;-0.47;100.00;99458.91;4997874;28;20584;-35
2023/12/17 03:38:41;;;;;;;12.30;7.35;;;0.50;99.90;;;-0.48;100.00;99455.44;4994559;28;20033;-35
2023/12/17 03:41:22;;;;;;;10.77;7.20;;;0.50;99.90;;;-0.49;100.00;99447.59;4998392;28;20553;-35
2023/12/17 03:43:54;;;;;;;14.48;7.63;;;0.50;99.90;;;-0.48;100.00;99445.09;4993807;28;20061;-35
2023/12/17 03:46:20;;;;;;;12.23;7.13;;;0.50;99.90;;;-0.49;100.00;99443.31;4998775;28;20584;-35
2023/12/17 03:48:46;;;;;;;12.13;6.97;;;0.40;99.90;;;-0.51;100.00;99446.66;4998286;28;20505;-35
2023/12/17 03:51:12;;;;;;;16.35;8.30;;;0.50;99.90;;;-0.49;100.00;99442.44;4993669;28;20096;-35
2023/12/17 03:53:38;;;;;;;16.70;7.97;;;0.50;99.90;;;-0.50;100.00;99436.38;4998447;28;20144;-35
2023/12/17 03:56:11;;;;;;;14.00;7.88;;;0.50;99.90;;;-0.46;100.00;99437.38;4999475;28;20435;-35
2023/12/17 03:58:37;;;;;;;13.75;7.57;;;0.60;99.90;;;-0.44;100.00;99444.38;4982114;28;20215;-34
2023/12/17 04:01:05;;;;;;;17.65;7.68;;;0.60;99.90;;;-0.42;100.00;99441.84;4987526;28;20629;-35
2023/12/17 04:03:30;;;;;;;15.07;7.63;;;0.60;99.90;;;-0.51;100.00;99419.03;4999993;28;20030;-35
2023/12/17 04:05:59;;;;;;;11.25;7.15;;;0.60;99.90;;;-0.43;100.00;99447.84;4991874;28;20133;-35
2023/12/17 04:08:25;;;;;;;11.30;6.80;;;0.60;99.90;;;-0.45;100.00;99436.53;5000444;28;20381;-35
2023/12/17 04:10:50;;;;;;;14.32;7.50;;;0.60;99.90;;;-0.45;100.00;99439.13;4993894;28;20048;-35
2023/12/17 04:13:16;;;;;;;12.77;7.00;;;0.60;99.90;;;-0.47;100.00;99440.78;4999253;28;20030;-35
2023/12/17 04:15:42;;;;;;;10.35;6.25;;;0.50;99.90;;;-0.47;100.00;99433.00;5002014;28;20034;-35
2023/12/17 04:18:07;;;;;;;10.23;6.60;;;0.50;99.90;;;-0.48;100.00;99441.63;4996680;28;20410;-35
2023/12/17 04:20:33;;;;;;;12.52;6.32;;;0.50;99.90;;;-0.52;100.00;99439.69;5002734;28;20042;-35
2023/12/17 04:22:59;;;;;;;12.65;6.60;;;0.50;99.90;;;-0.55;100.00;99437.00;5003106;28;20513;-35
2023/12/17 04:25:25;;;;;;;10.27;6.50;;;0.50;99.90;;;-0.55;100.00;99437.88;5001296;28;20065;-35
2023/12/17 04:27:51;;;;;;;10.50;6.38;;;0.50;99.90;;;-0.56;100.00;99430.91;5000944;28;20036;-35
2023/12/17 04:30:17;;;;;;;11.32;5.97;;;0.50;99.90;;;-0.57;100.00;99434.34;4999526;28;20029;-35
2023/12/17 04:32:43;;;;;;;11.07;6.18;;;0.40;99.90;;;-0.55;100.00;99439.59;4996607;28;20141;-35
2023/12/17 04:35:09;;;;;;;12.40;6.10;;;0.50;99.90;;;-0.58;100.00;99438.63;4993973;28;20034;-35
2023/12/17 04:37:34;;;;;;;12.50;6.50;;;0.50;99.90;;;-0.68;100.00;99428.75;5002634;28;20025;-35
2023/12/17 04:40:01;;;;;;;11.93;6.18;;;0.50;99.90;;;-0.56;100.00;99443.88;5000131;28;20121;-35
2023/12/17 04:42:28;;;;;;;9.88;6.05;;;0.40;99.90;;;-0.65;100.00;99427.97;5002079;28;20133;-35
2023/12/17 04:44:54;;;;;;;10.70;6.15;;;0.40;99.90;;;-0.58;100.00;99432.56;4998674;28;20053;-35
2023/12/17 04:47:19;;;;;;;10.52;6.35;;;0.40;99.90;;;-0.63;100.00;99427.22;5001772;28;20025;-35
2023/12/17 04:49:46;;;;;;;9.63;6.07;;;0.40;99.90;;;-0.61;100.00;99433.34;4997490;28;20243;-35
2023/12/17 04:52:12;;;;;;;11.70;6.53;;;0.40;99.90;;;-0.63;100.00;99424.63;4998353;28;20071;-35
2023/12/17 04:54:38;;;;;;;12.40;6.60;;;0.40;99.90;;;-0.62;100.00;99428.97;5003805;28;20029;-35
2023/12/17 04:57:04;;;;;;;10.20;6.03;;;0.40;99.90;;;-0.62;100.00;99430.69;5003623;28;20409;-35
2023/12/17 04:59:30;;;;;;;12.00;6.40;;;0.40;99.90;;;-0.62;100.00;99433.28;5001957;28;20034;-35
2023/12/17 05:01:55;;;;;;;11.45;6.57;;;0.40;99.90;;;-0.63;100.00;99426.31;5001779;28;20433;-35
2023/12/17 05:04:21;;;;;;;9.73;6.07;;;0.40;99.90;;;-0.64;100.00;99422.84;5001707;28;20031;-35
2023/12/17 05:06:47;;;;;;;9.45;6.35;;;0.40;99.90;;;-0.67;100.00;99414.94;4998787;28;20036;-35
2023/12/17 05:09:13;;;;;;;12.45;6.53;;;0.40;99.90;;;-0.62;100.00;99418.59;4995134;28;20557;-35
2023/12/17 05:11:39;;;;;;;14.05;7.07;;;0.40;99.90;;;-0.64;100.00;99419.38;4998047;28;20058;-35
2023/12/17 05:14:04;;;;;;;12.75;6.25;;;0.40;99.90;;;-0.66;100.00;99419.31;4999164;28;20044;-35
2023/12/17 05:16:30;;;;;;;9.45;5.72;;;0.40;99.90;;;-0.66;100.00;99415.84;5001915;28;20056;-35
2023/12/17 05:18:56;;;;;;;10.52;6.53;;;0.40;99.90;;;-0.66;100.00;99421.91;5012049;28;20826;-35
2023/12/17 05:21:21;;;;;;;9.85;6.43;;;0.40;99.90;;;-0.77;100.00;99395.56;5002683;28;20038;-35
2023/12/17 05:23:47;;;;;;;10.10;6.00;;;0.40;99.90;;;-0.65;100.00;99418.47;5001976;28;20516;-35
2023/12/17 05:26:13;;;;;;;10.35;6.22;;;0.40;99.90;;;-0.65;100.00;99408.09;4997384;28;20034;-35
2023/12/17 05:28:41;;;;;;;12.35;6.88;;;0.30;99.90;;;-0.69;100.00;99389.81;5000274;28;20029;-36
2023/12/17 05:31:07;;;;;;;10.90;6.57;;;0.40;99.90;;;-0.65;100.00;99394.28;4995716;28;20038;-36
2023/12/17 05:33:33;;;;;;;10.13;6.05;;;0.30;99.90;;;-0.74;100.00;99386.13;5001750;28;20403;-34
2023/12/17 05:35:59;;;;;;;12.85;6.47;;;0.40;99.90;;;-0.67;100.00;99399.38;4998244;28;20037;-33
2023/12/17 05:38:27;;;;;;;10.25;6.43;;;0.30;99.90;;;-0.68;100.00;99397.63;5002521;28;20061;-36
2023/12/17 05:40:54;;;;;;;12.13;6.53;;;0.30;99.90;;;-0.68;100.00;99392.47;4999066;28;20053;-34
2023/12/17 05:43:20;;;;;;;10.55;6.75;;;0.30;99.90;;;-0.68;100.00;99387.28;4998522;28;20042;-34
2023/12/17 05:45:45;;;;;;;9.95;7.03;;;0.30;99.90;;;-0.67;100.00;99390.75;4998581;28;20045;-34
2023/12/17 05:48:11;;;;;;;13.23;6.50;;;0.30;99.90;;;-0.68;100.00;99392.47;4997455;28;20235;-34
2023/12/17 05:50:37;;;;;;;10.73;6.65;;;0.30;99.90;;;-0.69;100.00;99390.69;4996689;28;20454;-35
2023/12/17 05:53:03;;;;;;;11.90;7.35;;;0.40;99.90;;;-0.68;100.00;99384.69;5000229;28;20026;-34
2023/12/17 05:55:28;;;;;;;11.20;6.95;;;0.30;99.90;;;-0.71;100.00;99391.44;4993146;28;20026;-35
2023/12/17 05:57:54;;;;;;;12.30;6.90;;;0.30;99.90;;;-0.72;100.00;99397.44;4999226;28;20033;-35
2023/12/17 06:00:20;;;;;;;11.63;6.53;;;0.30;99.90;;;-0.74;100.00;99399.97;4988394;28;20528;-35
2023/12/17 06:02:45;;;;;;;11.93;6.88;;;0.30;99.90;;;-0.75;100.00;99410.25;4995021;28;20061;-35
2023/12/17 06:05:11;;;;;;;11.32;6.72;;;0.30;99.90;;;-0.75;100.00;99416.34;4997328;28;20057;-35
2023/12/17 06:07:37;;;;;;;12.70;7.43;;;0.30;99.90;;;-0.73;100.00;99413.84;5000020;28;20025;-35
2023/12/17 06:10:03;;;;;;;11.70;6.72;;;0.30;99.90;;;-0.75;100.00;99412.84;4992272;28;20038;-34
2023/12/17 06:12:29;;;;;;;11.65;7.43;;;0.30;99.90;;;-0.72;100.00;99415.59;4995586;28;20034;-34
2023/12/17 06:14:55;;;;;;;14.07;7.60;;;0.30;99.90;;;-0.74;100.00;99418.09;5000873;28;20029;-35
2023/12/17 06:17:20;;;;;;;11.93;7.03;;;0.30;99.90;;;-0.74;100.00;99419.81;5001094;28;20425;-35
2023/12/17 06:19:46;;;;;;;10.90;7.43;;;0.30;99.90;;;-0.79;100.00;99415.34;5000986;28;20033;-35
2023/12/17 06:22:15;;;;;;;12.77;7.55;;;0.30;99.90;;;-0.73;100.00;99422.47;5001476;28;20451;-34
2023/12/17 06:24:41;;;;;;;10.95;7.10;;;0.30;99.90;;;-0.72;100.00;99421.63;5002709;28;20037;-35
2023/12/17 06:27:15;;;;;;;11.40;7.00;;;0.30;99.90;;;-0.72;100.00;99420.75;4994799;28;20038;-35
2023/12/17 06:29:40;;;;;;;10.52;7.10;;;0.20;99.90;;;-0.81;100.00;99406.63;5001394;28;20188;-35
2023/12/17 06:32:07;;;;;;;10.65;6.47;;;0.30;99.90;;;-0.72;100.00;99421.63;4995325;28;21055;-35
2023/12/17 06:34:33;;;;;;;13.73;7.15;;;0.20;99.90;;;-0.71;100.00;99422.56;5000767;28;20037;-35
2023/12/17 06:37:00;;;;;;;12.27;7.00;;;0.20;99.90;;;-0.71;100.00;99423.44;5000596;28;20052;-35
2023/12/17 06:39:26;;;;;;;11.98;7.00;;;0.20;99.90;;;-0.72;100.00;99432.00;5001381;28;20481;-35
2023/12/17 06:41:52;;;;;;;10.43;6.35;;;0.20;99.90;;;-0.75;100.00;99423.22;5001212;28;20044;-35
2023/12/17 06:44:18;;;;;;;11.35;6.88;;;0.30;99.90;;;-0.81;100.00;99421.28;5001079;28;20387;-36
2023/12/17 06:46:43;;;;;;;13.60;7.05;;;0.30;99.90;;;-0.73;100.00;99434.56;4999069;28;20032;-36
2023/12/17 06:49:10;;;;;;;11.07;6.93;;;0.30;99.90;;;-0.78;100.00;99430.06;4994569;28;20157;-35
2023/12/17 06:51:39;;;;;;;10.88;7.10;;;0.30;99.90;;;-0.87;100.00;99410.69;5000794;28;20887;-35
2023/12/17 06:54:09;;;;;;;9.93;6.95;;;0.30;99.90;;;-0.74;100.00;99432.78;5001973;28;20520;-36
2023/12/17 06:56:34;;;;;;;11.70;6.88;;;0.30;99.90;;;-0.73;100.00;99429.38;5002195;28;20026;-35
2023/12/17 06:59:01;;;;;;;12.48;7.00;;;0.30;99.90;;;-0.86;100.00;99418.50;4998876;28;20061;-35
2023/12/17 07:01:27;;;;;;;12.10;7.13;;;0.30;99.90;;;-0.75;100.00;99431.91;4995169;28;20041;-35
2023/12/17 07:03:53;;;;;;;13.18;7.15;;;0.30;99.90;;;-0.71;100.00;99448.47;5000785;28;20033;-35
2023/12/17 07:06:18;;;;;;;11.32;6.90;;;0.30;99.90;;;-0.74;100.00;99437.97;5002828;28;20034;-36
2023/12/17 07:08:44;;;;;;;11.52;6.65;;;0.30;99.90;;;-0.77;100.00;99439.63;4998773;28;20136;-36
2023/12/17 07:11:11;;;;;;;10.40;6.75;;;0.30;99.90;;;-0.78;100.00;99437.84;4999144;28;21626;-36
2023/12/17 07:13:37;;;;;;;10.82;7.07;;;0.30;99.90;;;-0.75;100.00;99441.38;4999450;28;20103;-36
2023/12/17 07:16:03;;;;;;;12.40;7.53;;;0.30;99.90;;;-0.76;100.00;99435.31;5000183;28;20029;-36
2023/12/17 07:18:29;;;;;;;12.63;7.07;;;0.20;99.90;;;-0.74;100.00;99433.66;4993264;28;20022;-37
2023/12/17 07:20:55;;;;;;;11.02;6.95;;;0.30;99.90;;;-0.74;100.00;99425.00;5002131;28;20084;-34
2023/12/17 07:23:24;;;;;;;12.68;7.20;;;0.20;99.90;;;-0.90;100.00;99405.34;4986307;28;23592;-34
2023/12/17 07:25:50;;;;;;;11.10;6.80;;;0.20;99.90;;;-0.78;100.00;99430.06;4994784;28;20037;-37
2023/12/17 07:28:15;;;;;;;10.73;6.68;;;0.20;99.90;;;-0.83;100.00;99410.84;4992411;28;20044;-36
2023/12/17 07:30:41;;;;;;;10.85;6.88;;;0.30;99.90;;;-0.72;100.00;99423.34;4996931;28;20040;-36
2023/12/17 07:33:08;;;;;;;11.93;7.20;;;0.30;99.90;;;-0.72;100.00;99420.75;4996004;28;20386;-36
2023/12/17 07:35:34;;;;;;;12.20;7.00;;;0.30;99.90;;;-0.69;100.00;99421.78;4995177;28;20531;-34
2023/12/17 07:37:59;;;;;;;11.50;6.75;;;0.30;99.90;;;-0.74;100.00;99410.34;4987295;28;20053;-35
2023/12/17 07:40:25;;;;;;;12.10;7.35;;;0.30;99.90;;;-0.63;100.00;99424.63;5001938;28;20034;-35
2023/12/17 07:42:51;;;;;;;11.30;7.35;;;0.40;99.90;;;-0.59;100.00;99421.31;4997806;28;20045;-35
2023/12/17 07:45:16;;;;;;;11.95;6.97;;;0.40;99.90;;;-0.53;100.00;99419.81;4992683;28;20434;-35
2023/12/17 07:47:42;;;;;;;10.75;7.00;;;0.50;99.90;;;-0.49;100.00;99414.78;4998047;28;20057;-35
2023/12/17 07:50:09;;;;;;;9.77;6.55;;;0.50;99.90;;;-0.45;100.00;99411.50;4994664;28;20393;-35
2023/12/17 07:52:35;;;;;;;12.25;7.25;;;0.50;99.90;;;-0.39;100.00;99416.03;5000970;28;20475;-35
2023/12/17 07:55:01;;;;;;;11.98;7.10;;;0.60;99.90;;;-0.33;100.00;99416.28;5001438;28;20041;-35
2023/12/17 07:57:26;;;;;;;12.02;7.13;;;0.60;99.90;;;-0.28;100.00;99419.06;5001866;28;20038;-35
2023/12/17 07:59:52;;;;;;;10.93;6.95;;;0.70;99.90;;;-0.24;100.00;99421.81;5001158;28;21081;-35
2023/12/17 08:02:18;;;;;;;11.25;6.88;;;0.70;99.90;;;-0.23;100.00;99410.63;4998609;28;20088;-36
2023/12/17 08:04:45;;;;;;;11.27;6.93;;;0.80;99.90;;;-0.16;100.00;99416.03;5000972;28;20053;-35
2023/12/17 08:07:11;;;;;;;11.45;7.03;;;0.80;99.90;;;-0.12;100.00;99415.34;5000184;28;20064;-35
2023/12/17 08:09:37;;;;;;;13.88;6.78;;;0.80;99.90;;;-0.09;100.00;99412.84;4998851;28;20037;-35
2023/12/17 08:12:03;;;;;;;13.05;6.95;;;0.90;99.90;;;-0.05;100.00;99418.22;5001289;28;20764;-36
2023/12/17 08:14:29;;;;;;;10.32;6.78;;;0.90;99.90;;;-0.08;100.00;99407.72;5001981;28;20041;-35
2023/12/17 08:16:55;;;;;;;8.52;6.43;;;1.00;99.90;;;0.02;100.00;99413.25;5004748;28;20041;-35
2023/12/17 08:19:20;;;;;;;11.02;7.05;;;1.00;99.90;;;0.05;100.00;99414.25;5004382;28;20034;-35
2023/12/17 08:21:46;;;;;;;12.90;7.15;;;1.10;99.90;;;0.13;100.00;99424.94;5001305;28;20049;-35
2023/12/17 08:24:12;;;;;;;12.93;7.60;;;1.10;99.90;;;0.19;100.00;99422.53;4998854;28;20030;-35
2023/12/17 08:26:38;;;;;;;13.35;7.65;;;1.10;99.90;;;0.23;100.00;99433.91;5002943;28;20548;-35
2023/12/17 08:29:03;;;;;;;13.27;7.13;;;1.20;99.90;;;0.28;100.00;99427.19;5004412;28;20041;-35
2023/12/17 08:31:29;;;;;;;10.57;7.72;;;1.30;99.90;;;0.34;100.00;99419.63;5002043;28;20076;-36
2023/12/17 08:33:55;;;;;;;11.88;7.68;;;1.30;99.90;;;0.39;100.00;99418.06;4999056;28;20108;-36
2023/12/17 08:36:23;;;;;;;10.80;6.82;;;1.30;99.90;;;0.46;100.00;99417.47;4999392;28;20046;-35
2023/12/17 08:38:49;;;;;;;12.27;7.30;;;1.40;99.90;;;0.50;100.00;99418.44;5006561;28;20076;-35
2023/12/17 08:41:14;;;;;;;14.23;7.32;;;1.40;99.90;;;0.48;100.00;99402.81;4997833;28;20038;-35
2023/12/17 08:43:41;;;;;;;12.93;7.50;;;1.50;99.90;;;0.60;100.00;99414.50;4991245;28;20046;-36
2023/12/17 08:46:07;;;;;;;11.23;7.55;;;1.50;99.90;;;0.57;100.00;99399.66;4988395;28;20040;-35
2023/12/17 08:48:32;;;;;;;12.30;7.45;;;1.60;99.90;;;0.66;100.00;99409.50;4992314;28;20045;-35
2023/12/17 08:50:58;;;;;;;10.48;6.80;;;1.60;99.90;;;0.72;100.00;99414.91;5004880;28;20239;-36
2023/12/17 08:53:26;;;;;;;10.25;6.30;;;1.70;99.90;;;0.78;100.00;99404.72;5004217;28;20257;-35
2023/12/17 08:55:52;;;;;;;12.52;7.88;;;1.70;99.90;;;0.69;100.00;99374.13;5000303;28;20034;-35
2023/12/17 08:58:18;;;;;;;11.50;6.80;;;1.80;99.90;;;0.88;100.00;99393.81;4998790;28;20465;-36
2023/12/17 09:00:44;;;;;;;14.32;8.25;;;1.80;99.90;;;0.94;100.00;99393.13;4997705;28;20043;-35
2023/12/17 09:03:09;;;;;;;11.60;6.72;;;1.90;99.90;;;1.00;100.00;99398.53;5002414;28;20044;-35
2023/12/17 09:05:35;;;;;;;12.15;7.80;;;2.00;99.90;;;1.08;100.00;99391.00;4995552;28;20037;-35
2023/12/17 09:08:02;;;;;;;11.50;7.03;;;2.00;99.90;;;1.14;100.00;99391.19;4997909;28;20040;-36
2023/12/17 09:10:28;;;;;;;10.20;6.80;;;2.10;99.90;;;1.20;100.00;99393.97;4998543;28;20454;-36
2023/12/17 09:12:54;;;;;;;10.90;7.07;;;2.10;99.90;;;1.27;100.00;99395.94;4999689;28;20076;-36
2023/12/17 09:15:21;;;;;;;10.10;6.90;;;2.20;99.90;;;1.20;100.00;99372.31;4995391;28;20437;-36
2023/12/17 09:17:46;;;;;;;10.77;7.03;;;2.20;99.90;;;1.41;100.00;99399.00;4996348;28;20034;-36
2023/12/17 09:20:13;;;;;;;9.20;6.38;;;2.30;99.90;;;1.39;100.00;99379.84;4997203;28;20100;-36
2023/12/17 09:22:40;;;;;;;9.82;6.40;;;2.40;99.90;;;1.56;100.00;99397.69;4997604;28;20069;-36
2023/12/17 09:25:06;;;;;;;10.38;6.38;;;2.40;99.90;;;1.60;100.00;99407.34;4996363;28;20038;-36
2023/12/17 09:27:32;;;;;;;10.73;6.75;;;2.50;99.90;;;1.62;100.00;99390.97;5001458;28;20030;-36
2023/12/17 09:29:58;;;;;;;12.32;7.10;;;2.50;99.90;;;1.67;100.00;99402.41;4993740;28;20042;-36
2023/12/17 09:32:23;;;;;;;11.45;7.03;;;2.60;99.90;;;1.73;100.00;99400.84;4993303;28;20759;-36
2023/12/17 09:34:49;;;;;;;10.20;6.60;;;2.60;99.90;;;1.78;100.00;99407.06;4989149;28;20450;-36
2023/12/17 09:37:15;;;;;;;9.88;6.25;;;2.60;99.90;;;1.73;100.00;99388.69;4991451;28;20029;-36
2023/12/17 09:39:41;;;;;;;9.52;6.57;;;2.70;99.90;;;1.87;100.00;99403.00;4985143;28;20031;-36
2023/12/17 09:42:06;;;;;;;10.07;6.60;;;2.70;99.90;;;1.76;100.00;99370.59;4995527;28;20032;-36
2023/12/17 09:44:32;;;;;;;11.80;7.00;;;2.80;99.90;;;2.00;100.00;99392.97;5002389;28;20038;-36
2023/12/17 09:46:58;;;;;;;9.07;6.28;;;2.80;99.90;;;1.87;100.00;99371.78;4995921;28;20089;-36
2023/12/17 09:49:24;;;;;;;11.75;6.80;;;2.90;99.90;;;2.10;100.00;99393.28;4997333;28;20225;-36
2023/12/17 09:52:01;;;;;;;9.73;6.40;;;2.90;99.90;;;2.18;100.00;99385.69;5000781;28;20040;-36
2023/12/17 09:54:27;;;;;;;11.25;7.10;;;3.10;99.90;;;2.21;100.00;99388.38;4986668;28;20033;-36
2023/12/17 09:56:54;;;;;;;11.88;6.50;;;3.10;99.90;;;2.25;100.00;99387.59;5001883;28;20030;-36
2023/12/17 09:59:19;;;;;;;10.25;6.75;;;3.10;99.90;;;2.28;100.00;99387.72;4992435;28;20033;-36
2023/12/17 10:01:46;;;;;;;11.18;7.40;;;3.10;99.90;;;2.37;100.00;99388.78;4995485;28;20030;-36
2023/12/17 10:04:11;;;;;;;11.27;7.38;;;3.20;99.90;;;2.41;100.00;99388.94;4997672;28;20320;-36
2023/12/17 10:06:37;;;;;;;10.25;6.70;;;3.20;99.90;;;2.48;100.00;99390.84;5001651;28;20026;-36
2023/12/17 10:09:06;;;;;;;10.07;7.10;;;3.30;99.90;;;2.56;100.00;99385.84;5001017;28;20095;-36
2023/12/17 10:11:32;;;;;;;10.00;6.45;;;3.40;99.90;;;2.58;100.00;99386.75;4992818;28;20040;-36